createdAt,value
2023-01-20T00:04:39.929Z,1.25
2023-01-20T00:09:41.988Z,1.25
2023-01-20T00:14:42.638Z,1.18
2023-01-20T00:19:43.308Z,1.19
2023-01-20T00:24:45.332Z,1.18
2023-01-20T00:29:46.766Z,1.16
2023-01-20T00:34:47.438Z,1.25
2023-01-20T00:39:49.456Z,1.26
2023-01-20T00:44:50.211Z,1.24
2023-01-20T00:49:50.980Z,1.26
2023-01-20T00:54:52.972Z,1.30
2023-01-20T00:59:53.765Z,1.35
2023-01-20T01:04:54.455Z,1.30
2023-01-20T01:09:56.444Z,1.07
2023-01-20T01:14:57.112Z,1.10
2023-01-20T01:19:57.791Z,1.14
2023-01-20T01:24:59.811Z,1.31
2023-01-20T01:30:00.618Z,1.28
2023-01-20T01:35:01.322Z,1.34
2023-01-20T01:40:03.357Z,1.44
2023-01-20T01:45:23.218Z,1.44
2023-01-20T01:50:27.192Z,1.40
2023-01-20T01:55:32.229Z,1.51
2023-01-20T02:00:32.966Z,1.52
2023-01-20T02:05:36.341Z,1.41
2023-01-20T02:10:38.354Z,1.47
2023-01-20T02:15:45.857Z,1.32
2023-01-20T02:21:16.274Z,1.38
2023-01-20T02:26:39.460Z,1.49
2023-01-20T02:32:15.339Z,1.56
2023-01-20T02:37:20.085Z,1.39
2023-01-20T02:42:26.030Z,1.48
2023-01-20T02:47:34.321Z,1.46
2023-01-20T02:52:39.452Z,1.44
2023-01-20T02:57:44.343Z,1.44
2023-01-20T03:02:49.426Z,1.49
2023-01-20T03:07:53.009Z,1.49
2023-01-20T03:12:58.065Z,1.40
2023-01-20T03:18:00.137Z,1.43
2023-01-20T03:23:00.832Z,1.30
2023-01-20T03:28:01.580Z,1.18
2023-01-20T03:33:04.774Z,1.22
2023-01-20T03:38:05.505Z,1.11
2023-01-20T03:43:12.945Z,1.15
2023-01-20T03:48:21.049Z,1.06
2023-01-20T03:53:32.890Z,0.96
2023-01-20T03:58:37.851Z,0.95
2023-01-20T04:03:43.709Z,0.95
2023-01-20T04:08:48.049Z,0.93
2023-01-20T04:13:48.759Z,0.83
2023-01-20T04:18:52.541Z,0.77
2023-01-20T04:23:58.862Z,0.73
2023-01-20T04:28:59.592Z,0.69
2023-01-20T04:34:01.683Z,0.73
2023-01-20T04:39:02.338Z,0.61
2023-01-20T04:44:02.974Z,0.45
2023-01-20T04:49:05.003Z,0.44
2023-01-20T04:54:06.037Z,0.40
2023-01-20T04:59:06.678Z,0.35
2023-01-20T05:04:08.693Z,0.34
2023-01-20T05:09:10.803Z,0.54
2023-01-20T05:14:12.418Z,0.64
2023-01-20T05:19:14.648Z,0.97
2023-01-20T05:24:15.371Z,0.62
2023-01-20T05:29:16.068Z,0.55
2023-01-20T05:34:18.150Z,0.49
2023-01-20T05:39:18.938Z,0.52
2023-01-20T05:44:19.602Z,0.52
2023-01-20T05:49:21.600Z,0.53
2023-01-20T05:54:22.818Z,0.55
2023-01-20T05:59:24.672Z,0.62
2023-01-20T06:04:26.837Z,0.64
2023-01-20T06:09:27.482Z,0.66
2023-01-20T06:14:28.148Z,0.70
2023-01-20T06:19:30.166Z,0.66
2023-01-20T06:24:30.938Z,0.70
2023-01-20T06:29:31.792Z,0.72
2023-01-20T06:34:33.832Z,0.73
2023-01-20T06:39:34.527Z,0.78
2023-01-20T06:44:35.184Z,0.79
2023-01-20T06:49:37.191Z,0.84
2023-01-20T06:54:37.848Z,0.86
2023-01-20T06:59:38.565Z,0.82
2023-01-20T07:04:40.724Z,0.89
2023-01-20T07:09:41.414Z,0.95
2023-01-20T07:14:42.113Z,0.87
2023-01-20T07:19:44.106Z,0.80
2023-01-20T07:24:44.763Z,0.66
2023-01-20T07:29:45.419Z,0.53
2023-01-20T07:34:50.084Z,0.54
2023-01-20T07:39:50.928Z,0.56
2023-01-20T07:44:51.601Z,0.65
2023-01-20T07:49:53.562Z,0.72
2023-01-20T07:54:54.317Z,0.90
2023-01-20T07:59:55.138Z,0.83
2023-01-20T08:04:57.421Z,0.89
2023-01-20T08:09:58.682Z,0.97
2023-01-20T08:14:59.641Z,0.99
2023-01-20T08:20:01.681Z,1.04
2023-01-20T08:25:02.366Z,1.07
2023-01-20T08:30:03.095Z,1.10
2023-01-20T08:35:05.618Z,1.19
2023-01-20T08:40:08.519Z,1.15
2023-01-20T08:45:10.323Z,1.15
2023-01-20T08:50:15.271Z,1.20
2023-01-20T08:55:16.246Z,1.13
2023-01-20T09:00:18.374Z,1.18
2023-01-20T09:05:22.287Z,1.11
2023-01-20T09:10:23.030Z,1.21
2023-01-20T09:15:25.527Z,1.15
2023-01-20T09:20:28.897Z,1.13
2023-01-20T09:25:29.723Z,1.17
2023-01-20T09:30:30.466Z,1.05
2023-01-20T09:35:32.532Z,1.07
2023-01-20T09:40:56.927Z,1.23
2023-01-20T09:46:02.324Z,1.21
2023-01-20T09:51:27.937Z,1.20
2023-01-20T09:56:31.946Z,1.24
2023-01-20T10:01:40.478Z,1.22
2023-01-20T10:06:46.657Z,1.31
2023-01-20T10:11:49.672Z,1.29
2023-01-20T10:16:56.684Z,1.27
2023-01-20T10:22:07.471Z,1.37
2023-01-20T10:27:08.200Z,1.38
2023-01-20T10:32:17.200Z,1.42
2023-01-20T10:37:19.994Z,1.38
2023-01-20T10:42:21.668Z,1.43
2023-01-20T10:47:31.580Z,1.39
2023-01-20T10:52:46.383Z,1.47
2023-01-20T10:57:53.424Z,1.45
2023-01-20T11:02:59.118Z,1.46
2023-01-20T11:08:03.675Z,1.39
2023-01-20T11:13:05.069Z,1.46
2023-01-20T11:18:23.721Z,1.62
2023-01-20T11:23:35.299Z,1.56
2023-01-20T11:28:45.856Z,1.58
2023-01-20T11:33:59.265Z,1.66
2023-01-20T11:39:01.772Z,1.63
2023-01-20T11:44:02.586Z,1.62
2023-01-20T11:49:19.847Z,1.73
2023-01-20T11:54:24.794Z,1.70
2023-01-20T11:59:28.452Z,1.76
2023-01-20T12:04:50.768Z,1.65
2023-01-20T12:09:56.685Z,1.65
2023-01-20T12:15:04.163Z,1.58
2023-01-20T12:20:11.778Z,1.58
2023-01-20T12:25:22.808Z,1.55
2023-01-20T12:30:41.180Z,1.48
2023-01-20T12:35:48.201Z,1.52
2023-01-20T12:40:53.713Z,1.54
2023-01-20T12:46:12.026Z,1.62
2023-01-20T12:51:25.183Z,1.62
2023-01-20T12:56:39.975Z,1.62
2023-01-20T13:02:05.906Z,1.30
2023-01-20T13:07:18.414Z,1.24
2023-01-20T13:12:34.385Z,1.32
2023-01-20T13:17:41.466Z,1.33
2023-01-20T13:22:42.417Z,1.22
2023-01-20T13:27:46.036Z,1.27
2023-01-20T13:32:48.767Z,1.44
2023-01-20T13:37:51.884Z,1.52
2023-01-20T13:42:54.771Z,1.29
2023-01-20T13:48:01.158Z,1.21
2023-01-20T13:53:31.511Z,1.20
2023-01-20T13:58:45.425Z,1.30
2023-01-20T14:04:02.856Z,1.27
2023-01-20T14:09:08.505Z,1.24
2023-01-20T14:14:21.236Z,1.32
2023-01-20T14:19:25.398Z,1.36
2023-01-20T14:24:28.977Z,1.38
2023-01-20T14:29:31.019Z,1.36
2023-01-20T14:34:33.408Z,1.31
2023-01-20T14:39:34.500Z,1.17
2023-01-20T14:44:37.355Z,1.23
2023-01-20T14:49:39.599Z,1.18
2023-01-20T14:54:44.576Z,1.01
2023-01-20T14:59:46.574Z,0.94
2023-01-20T15:04:47.258Z,0.87
2023-01-20T15:09:55.394Z,0.89
2023-01-20T15:15:14.908Z,0.98
2023-01-20T15:20:28.629Z,0.79
2023-01-20T15:25:30.222Z,0.75
2023-01-20T15:30:32.290Z,0.67
2023-01-20T15:35:34.198Z,0.72
2023-01-20T15:40:35.676Z,0.77
2023-01-20T15:45:37.702Z,0.86
2023-01-20T15:50:38.411Z,0.84
2023-01-20T15:55:43.725Z,0.92
2023-01-20T16:00:45.772Z,0.86
2023-01-20T16:05:49.481Z,0.68
2023-01-20T16:10:50.341Z,0.64
2023-01-20T16:15:52.366Z,0.68
2023-01-20T16:20:53.228Z,0.67
2023-01-20T16:25:53.942Z,0.65
2023-01-20T16:30:57.674Z,0.61
2023-01-20T16:35:58.419Z,0.56
2023-01-20T16:41:04.655Z,0.59
2023-01-20T16:46:06.731Z,0.65
2023-01-20T16:51:08.060Z,0.68
2023-01-20T16:56:13.807Z,0.73
2023-01-20T17:01:20.818Z,0.64
2023-01-20T17:06:23.370Z,0.59
2023-01-20T17:11:26.632Z,0.68
2023-01-20T17:16:28.697Z,0.70
2023-01-20T17:21:31.026Z,0.72
2023-01-20T17:26:31.932Z,0.75
2023-01-20T17:31:36.703Z,0.47
2023-01-20T17:36:38.734Z,0.52
2023-01-20T17:41:39.434Z,0.55
2023-01-20T17:46:41.493Z,0.45
2023-01-20T17:51:42.701Z,0.60
2023-01-20T17:56:43.511Z,0.54
2023-01-20T18:01:45.557Z,0.64
2023-01-20T18:06:46.549Z,0.67
2023-01-20T18:11:47.360Z,0.70
2023-01-20T18:16:50.272Z,0.67
2023-01-20T18:21:51.091Z,0.55
2023-01-20T18:26:51.899Z,0.52
2023-01-20T18:31:54.604Z,0.57
2023-01-20T18:36:55.483Z,0.59
2023-01-20T18:41:56.423Z,0.55
2023-01-20T18:46:58.461Z,0.54
2023-01-20T18:51:59.211Z,0.41
2023-01-20T18:56:59.941Z,0.44
2023-01-20T19:02:02.072Z,0.37
2023-01-20T19:07:02.838Z,0.37
2023-01-20T19:12:03.525Z,0.38
2023-01-20T19:17:05.542Z,0.23
2023-01-20T19:22:06.263Z,0.30
2023-01-20T19:27:08.092Z,0.24
2023-01-20T19:32:10.515Z,0.24
2023-01-20T19:37:11.204Z,0.25
2023-01-20T19:42:11.893Z,0.21
2023-01-20T19:47:13.919Z,0.18
2023-01-20T19:52:14.788Z,0.21
2023-01-20T19:57:15.495Z,0.22
2023-01-20T20:02:17.577Z,0.11
2023-01-20T20:07:18.516Z,0.18
2023-01-20T20:12:19.258Z,0.05
2023-01-20T20:17:21.397Z,-0.10
2023-01-20T20:22:22.100Z,-0.25
2023-01-20T20:27:23.457Z,-0.26
2023-01-20T20:32:27.369Z,-0.34
2023-01-20T20:37:28.264Z,-0.24
2023-01-20T20:42:30.248Z,-0.28
2023-01-20T20:47:33.051Z,-0.14
2023-01-20T20:52:33.820Z,-0.26
2023-01-20T20:57:34.548Z,-0.41
2023-01-20T21:02:36.661Z,-0.33
2023-01-20T21:07:37.395Z,-0.26
2023-01-20T21:12:38.071Z,-0.25
2023-01-20T21:17:40.685Z,-0.31
2023-01-20T21:22:41.468Z,-0.42
2023-01-20T21:27:42.168Z,-0.30
2023-01-20T21:32:44.380Z,-0.20
2023-01-20T21:37:45.112Z,-0.40
2023-01-20T21:42:45.832Z,-0.35
2023-01-20T21:47:47.797Z,-0.23
2023-01-20T21:52:49.619Z,-0.13
2023-01-20T21:57:51.495Z,-0.14
2023-01-20T22:02:53.728Z,-0.10
2023-01-20T22:07:54.400Z,-0.16
2023-01-20T22:12:56.064Z,-0.21
2023-01-20T22:17:59.114Z,-0.28
2023-01-20T22:22:59.782Z,-0.19
2023-01-20T22:28:00.536Z,-0.21
2023-01-20T22:33:02.543Z,-0.07
2023-01-20T22:38:03.524Z,-0.06
2023-01-20T22:43:04.228Z,-0.22
2023-01-20T22:48:06.787Z,-0.50
2023-01-20T22:53:07.451Z,-0.52
2023-01-20T22:58:08.133Z,-0.42
2023-01-20T23:03:10.294Z,-0.46
2023-01-20T23:08:10.948Z,-0.39
2023-01-20T23:13:11.614Z,-0.44
2023-01-20T23:18:13.671Z,-0.40
2023-01-20T23:23:14.358Z,-0.51
2023-01-20T23:28:15.624Z,-0.52
2023-01-20T23:33:17.611Z,-0.44
2023-01-20T23:38:18.265Z,-0.47
2023-01-20T23:43:18.909Z,-0.66
2023-01-20T23:48:20.921Z,-0.64
2023-01-20T23:53:21.790Z,-0.80
2023-01-20T23:58:22.453Z,-0.61
